Time;durP1;ratioP1;P1;durP2;ratioP2;P2;SDS_P1;SDS_P2;PMS_P1;PMS_P2;Temp;Humidity;BMP_temperature;BMP_pressure;BME280_temperature;BME280_humidity;BME280_pressure;Samples;Min_cycle;Max_cycle;Signal;HPM_P1;HPM_P2
2022/11/10 00:08:14;;;;;;;27.58;14.32;;;;;;;9.98;72.38;100233.25;30627162;28;97634;-58
2022/11/10 00:23:15;;;;;;;29.48;15.45;;;;;;;9.88;73.33;100231.72;30625674;28;97395;-60
2022/11/10 00:38:15;;;;;;;26.90;15.10;;;;;;;9.72;73.88;100238.69;30623925;28;96681;-61
2022/11/10 00:53:16;;;;;;;28.45;15.35;;;;;;;9.68;74.95;100252.47;30622909;28;97200;-58
2022/11/10 01:08:17;;;;;;;27.80;15.30;;;;;;;9.64;75.20;100266.09;30621442;28;96744;-59
2022/11/10 01:23:18;;;;;;;26.90;15.68;;;;;;;9.55;75.27;100276.88;30620113;28;96989;-59
2022/11/10 01:38:18;;;;;;;25.35;15.38;;;;;;;9.45;75.78;100275.19;30618323;28;96861;-59
2022/11/10 01:53:23;;;;;;;30.10;16.65;;;;;;;9.36;76.28;100284.13;30615946;28;96730;-58
2022/11/10 02:08:25;;;;;;;24.83;15.50;;;;;;;9.38;76.93;100294.63;30616332;28;96761;-59
2022/11/10 02:23:28;;;;;;;29.57;15.93;;;;;;;9.39;77.22;100296.25;30614736;28;96820;-58
2022/11/10 02:38:29;;;;;;;26.63;14.63;;;;;;;9.41;77.18;100296.94;30613302;28;98526;-58
2022/11/10 02:53:29;;;;;;;28.45;15.60;;;;;;;9.36;77.76;100316.03;30612126;28;96767;-59
2022/11/10 03:08:30;;;;;;;26.58;14.90;;;;;;;9.27;77.96;100340.91;30621708;28;97416;-59
2022/11/10 03:23:32;;;;;;;23.90;14.05;;;;;;;9.10;77.69;100359.44;30631095;28;96659;-59
2022/11/10 03:38:33;;;;;;;29.80;15.33;;;;;;;9.08;78.68;100385.31;30629541;28;96609;-59
2022/11/10 03:53:33;;;;;;;25.83;14.07;;;;;;;9.08;78.94;100387.97;30626287;28;97149;-58
2022/11/10 04:23:52;;;;;;;21.63;12.97;;;;;;;9.12;79.37;100385.84;30623294;28;96984;-59
2022/11/10 04:38:56;;;;;;;21.77;12.40;;;;;;;9.07;79.18;100407.56;30619730;28;97318;-58
2022/11/10 04:53:57;;;;;;;24.00;12.70;;;;;;;9.00;79.43;100430.44;30618316;28;96998;-58
2022/11/10 05:08:57;;;;;;;18.90;9.73;;;;;;;9.07;79.89;100443.94;30617746;28;97022;-58
2022/11/10 05:23:58;;;;;;;27.63;11.48;;;;;;;9.06;79.47;100456.41;30611317;28;97802;-58
2022/11/10 05:38:58;;;;;;;16.00;9.38;;;;;;;9.11;79.54;100480.69;30613890;28;97292;-58
2022/11/10 05:53:58;;;;;;;13.98;8.25;;;;;;;9.20;79.38;100509.97;30615158;28;96879;-59
2022/11/10 06:08:59;;;;;;;14.18;8.63;;;;;;;9.11;79.04;100548.97;30610824;28;96721;-59
2022/11/10 06:23:59;;;;;;;14.77;8.30;;;;;;;9.05;78.75;100581.44;30611818;28;97038;-58
2022/11/10 06:39:00;;;;;;;12.13;7.05;;;;;;;9.03;78.72;100605.50;30607780;28;97351;-59
2022/11/10 06:54:00;;;;;;;12.77;6.70;;;;;;;9.05;79.01;100647.88;30608245;28;96994;-58
2022/11/10 07:09:00;;;;;;;10.68;7.10;;;;;;;9.14;78.67;100666.44;30606559;28;96806;-61
2022/11/10 07:24:01;;;;;;;11.52;6.30;;;;;;;9.25;78.61;100675.19;30607066;28;96734;-62
2022/11/10 07:39:01;;;;;;;14.43;6.78;;;;;;;9.53;78.15;100707.91;30604734;28;96755;-60
2022/11/10 07:54:02;;;;;;;9.77;5.60;;;;;;;9.44;78.09;100730.91;30610171;28;96884;-60
2022/11/10 08:09:02;;;;;;;8.65;4.90;;;;;;;9.36;78.17;100744.09;30617093;28;96683;-59
2022/11/10 08:24:03;;;;;;;7.78;5.00;;;;;;;9.59;77.83;100765.78;30615593;28;97788;-61
2022/11/10 08:39:03;;;;;;;9.40;4.97;;;;;;;11.20;76.07;100792.38;30613032;28;96875;-62
2022/11/10 08:54:04;;;;;;;5.10;3.38;;;;;;;11.99;74.99;100814.34;30618603;28;96797;-61
2022/11/10 09:09:04;;;;;;;5.05;2.58;;;;;;;19.68;69.24;100835.97;30616569;28;97292;-62
2022/11/10 09:24:05;;;;;;;6.97;2.70;;;;;;;20.09;56.54;100853.66;30614134;28;96563;-59
2022/11/10 09:39:06;;;;;;;5.83;2.70;;;;;;;26.99;44.94;100873.50;30614053;28;97370;-63
2022/11/10 09:54:38;;;;;;;5.87;1.70;;;;;;;30.74;35.94;100884.34;30613619;28;97154;-71
2022/11/10 10:09:48;;;;;;;7.50;1.70;;;;;;;35.03;24.92;100900.50;30606698;28;96685;-63
2022/11/10 10:24:52;;;;;;;5.10;1.70;;;;;;;36.00;19.58;100918.22;30598896;28;97011;-63
2022/11/10 10:39:54;;;;;;;7.77;1.90;;;;;;;37.67;18.72;100910.28;30607139;28;96837;-67
2022/11/10 10:55:00;;;;;;;5.63;1.77;;;;;;;39.54;16.28;100899.34;30607816;28;96617;-63
2022/11/10 11:10:01;;;;;;;4.97;1.70;;;;;;;28.50;24.12;100914.03;30606162;28;97214;-64
2022/11/10 11:25:04;;;;;;;12.77;2.10;;;;;;;26.31;27.07;100931.41;30603899;28;97321;-65
2022/11/10 11:40:42;;;;;;;8.13;2.10;;;;;;;25.08;29.50;100932.50;30617188;28;98391;-63
2022/11/10 11:56:05;;;;;;;6.10;1.80;;;;;;;30.09;25.62;100942.28;30615409;28;97446;-67
2022/11/10 12:11:33;;;;;;;4.43;1.50;;;;;;;32.40;22.37;100942.69;30613390;28;96758;-67
2022/11/10 12:26:49;;;;;;;;;;;;;;;31.64;22.94;100967.38;30609556;28;96913;-62
2022/11/10 12:41:57;;;;;;;7.70;1.60;;;;;;;33.99;20.11;100964.94;30618188;28;97726;-64
2022/11/10 12:57:04;;;;;;;5.27;1.60;;;;;;;30.52;23.37;100989.28;30618012;28;97480;-63
2022/11/10 13:12:22;;;;;;;9.00;2.27;;;;;;;24.73;29.36;101001.69;30617900;28;96825;-63
2022/11/10 13:27:34;;;;;;;3.43;1.57;;;;;;;23.47;30.36;101007.53;30611302;28;97146;-62
2022/11/10 13:42:35;;;;;;;6.87;2.00;;;;;;;23.87;31.72;101030.44;30603905;28;97055;-63
2022/11/10 13:57:36;;;;;;;5.32;1.65;;;;;;;20.62;34.76;101042.75;30611523;28;96885;-63
2022/11/10 14:12:49;;;;;;;7.87;1.70;;;;;;;22.45;33.51;101071.69;30609650;28;96700;-62
2022/11/10 14:27:50;;;;;;;5.13;1.40;;;;;;;24.72;30.93;101093.50;30610280;28;96921;-64
2022/11/10 14:42:50;;;;;;;4.85;1.40;;;;;;;22.20;33.88;101101.63;30601879;28;98011;-66
2022/11/10 14:57:52;;;;;;;;;;;;;;;18.11;39.44;101123.16;30598725;28;97507;-73
2022/11/10 15:13:02;;;;;;;7.17;2.70;;;;;;;15.02;44.85;101146.94;30626616;28;98104;-64
2022/11/10 15:28:13;;;;;;;10.10;3.30;;;;;;;13.35;48.50;101165.28;30625460;28;97953;-65
2022/11/10 15:43:23;;;;;;;5.50;2.40;;;;;;;12.28;51.79;101188.91;30619922;28;96731;-64
2022/11/10 15:58:26;;;;;;;10.30;4.50;;;;;;;11.31;54.46;101218.06;30620346;28;96869;-61
2022/11/10 16:13:31;;;;;;;11.50;4.17;;;;;;;10.75;56.74;101236.69;30617926;28;97003;-64
2022/11/10 16:28:32;;;;;;;9.43;4.30;;;;;;;10.21;58.62;101280.81;30607449;28;97054;-65
2022/11/10 16:43:33;;;;;;;12.10;6.10;;;;;;;9.94;60.36;101307.16;30592612;28;97136;-66
2022/11/10 16:58:33;;;;;;;10.18;5.70;;;;;;;9.65;61.70;101320.41;30550219;28;97134;-61
2022/11/10 17:13:33;;;;;;;17.05;6.85;;;;;;;9.25;63.01;101347.84;30584799;28;96840;-64
2022/11/10 17:28:34;;;;;;;11.40;6.95;;;;;;;8.99;64.15;101350.94;30602105;28;96774;-63
2022/11/10 17:43:34;;;;;;;18.75;9.82;;;;;;;8.74;65.32;101345.03;30600839;28;97292;-62
2022/11/10 17:58:35;;;;;;;12.50;6.40;;;;;;;8.35;66.52;101331.47;30603821;28;96782;-64
2022/11/10 18:13:39;;;;;;;18.45;8.68;;;;;;;8.16;67.70;101339.25;30601108;28;97049;-64
2022/11/10 18:28:40;;;;;;;23.03;10.83;;;;;;;8.14;67.85;101353.47;30598294;28;97337;-61
2022/11/10 18:43:41;;;;;;;21.23;10.77;;;;;;;8.31;69.08;101369.88;30598262;28;97203;-64
2022/11/10 18:58:41;;;;;;;21.55;11.57;;;;;;;8.50;68.48;101381.63;30597240;28;97253;-61
2022/11/10 19:13:42;;;;;;;23.73;11.05;;;;;;;8.51;68.46;101394.78;30597580;28;96830;-63
2022/11/10 19:28:45;;;;;;;21.13;11.95;;;;;;;8.34;68.67;101419.19;30595401;28;97672;-67
2022/11/10 19:43:46;;;;;;;22.60;12.30;;;;;;;8.34;68.93;101427.16;30596283;28;97497;-64
2022/11/10 19:58:47;;;;;;;25.35;11.95;;;;;;;8.06;68.98;101453.28;30615005;28;96822;-65
2022/11/10 20:13:48;;;;;;;25.30;13.27;;;;;;;7.78;70.04;101448.38;30611813;28;97275;-61
2022/11/10 20:28:50;;;;;;;22.03;13.40;;;;;;;7.56;70.83;101454.53;30613730;28;97227;-62
2022/11/10 20:43:51;;;;;;;22.03;12.60;;;;;;;7.61;70.63;101448.84;30605551;28;97513;-65
2022/11/10 20:58:52;;;;;;;19.52;12.00;;;;;;;7.39;70.94;101463.75;30602464;28;97162;-63
2022/11/10 21:13:52;;;;;;;23.73;13.80;;;;;;;7.20;71.40;101463.50;30607658;28;96764;-66
2022/11/10 21:28:53;;;;;;;27.00;14.38;;;;;;;7.01;72.03;101470.22;30606328;28;97929;-66
2022/11/10 21:43:53;;;;;;;43.67;14.68;;;;;;;6.72;72.32;101464.41;30612447;28;97351;-66
2022/11/10 21:58:53;;;;;;;26.92;14.23;;;;;;;6.50;72.54;101458.06;30613992;28;96720;-68
2022/11/10 22:29:12;;;;;;;26.52;13.18;;;;;;;6.33;74.57;101479.59;30614066;28;97050;-63
2022/11/10 22:44:13;;;;;;;22.77;13.23;;;;;;;6.29;74.61;101496.66;30610333;28;96951;-66
2022/11/10 22:59:14;;;;;;;24.98;13.60;;;;;;;6.23;74.73;101509.41;30610563;28;96673;-66
2022/11/10 23:14:15;;;;;;;23.88;14.15;;;;;;;6.15;75.45;101545.28;30609839;28;96703;-73
2022/11/10 23:29:15;;;;;;;24.35;13.23;;;;;;;6.26;75.70;101555.94;30625077;28;96822;-68
2022/11/10 23:44:15;;;;;;;22.58;12.35;;;;;;;6.62;75.63;101554.28;30629867;28;96692;-64
2022/11/10 23:59:16;;;;;;;26.20;15.15;;;;;;;6.49;75.57;101561.41;30628921;28;96971;-69
